sensor_id;sensor_type;location;lat;lon;timestamp;P1;durP1;ratioP1;P2;durP2;ratioP2
78916;SDS011;68315;48.608;11.436;2024-02-26T00:02:20;11.50;;;7.53;;
78916;SDS011;68315;48.608;11.436;2024-02-26T00:04:45;11.75;;;7.60;;
78916;SDS011;68315;48.608;11.436;2024-02-26T00:07:10;13.18;;;8.20;;
78916;SDS011;68315;48.608;11.436;2024-02-26T00:09:36;13.70;;;9.57;;
78916;SDS011;68315;48.608;11.436;2024-02-26T00:12:02;11.63;;;7.93;;
78916;SDS011;68315;48.608;11.436;2024-02-26T00:14:28;12.95;;;8.77;;
78916;SDS011;68315;48.608;11.436;2024-02-26T00:16:54;13.20;;;8.82;;
78916;SDS011;68315;48.608;11.436;2024-02-26T00:19:19;12.40;;;7.32;;
78916;SDS011;68315;48.608;11.436;2024-02-26T00:21:45;10.48;;;7.50;;
78916;SDS011;68315;48.608;11.436;2024-02-26T00:24:10;12.35;;;8.18;;
78916;SDS011;68315;48.608;11.436;2024-02-26T00:26:35;11.52;;;8.60;;
78916;SDS011;68315;48.608;11.436;2024-02-26T00:29:00;12.57;;;8.40;;
78916;SDS011;68315;48.608;11.436;2024-02-26T00:31:26;12.05;;;8.13;;
78916;SDS011;68315;48.608;11.436;2024-02-26T00:33:51;13.95;;;8.30;;
78916;SDS011;68315;48.608;11.436;2024-02-26T00:36:16;10.93;;;8.38;;
78916;SDS011;68315;48.608;11.436;2024-02-26T00:38:43;11.20;;;7.47;;
78916;SDS011;68315;48.608;11.436;2024-02-26T00:41:09;11.30;;;7.70;;
78916;SDS011;68315;48.608;11.436;2024-02-26T00:43:35;11.10;;;7.00;;
78916;SDS011;68315;48.608;11.436;2024-02-26T00:46:00;11.13;;;7.45;;
78916;SDS011;68315;48.608;11.436;2024-02-26T00:48:25;10.68;;;7.00;;
78916;SDS011;68315;48.608;11.436;2024-02-26T00:50:51;11.80;;;7.03;;
78916;SDS011;68315;48.608;11.436;2024-02-26T00:53:16;10.60;;;6.82;;
78916;SDS011;68315;48.608;11.436;2024-02-26T00:55:41;10.65;;;7.53;;
78916;SDS011;68315;48.608;11.436;2024-02-26T00:58:07;11.13;;;7.03;;
78916;SDS011;68315;48.608;11.436;2024-02-26T01:00:32;10.55;;;6.97;;
78916;SDS011;68315;48.608;11.436;2024-02-26T01:02:57;13.60;;;7.97;;
78916;SDS011;68315;48.608;11.436;2024-02-26T01:05:24;14.02;;;8.07;;
78916;SDS011;68315;48.608;11.436;2024-02-26T01:07:49;12.90;;;8.07;;
78916;SDS011;68315;48.608;11.436;2024-02-26T01:10:14;11.73;;;7.40;;
78916;SDS011;68315;48.608;11.436;2024-02-26T01:12:40;11.65;;;7.13;;
78916;SDS011;68315;48.608;11.436;2024-02-26T01:15:05;11.45;;;7.35;;
78916;SDS011;68315;48.608;11.436;2024-02-26T01:17:30;12.68;;;8.23;;
78916;SDS011;68315;48.608;11.436;2024-02-26T01:19:56;13.05;;;8.38;;
78916;SDS011;68315;48.608;11.436;2024-02-26T01:22:21;12.63;;;8.65;;
78916;SDS011;68315;48.608;11.436;2024-02-26T01:24:47;13.55;;;8.65;;
78916;SDS011;68315;48.608;11.436;2024-02-26T01:27:12;14.27;;;8.85;;
78916;SDS011;68315;48.608;11.436;2024-02-26T01:29:39;14.02;;;8.57;;
78916;SDS011;68315;48.608;11.436;2024-02-26T01:32:04;14.23;;;8.73;;
78916;SDS011;68315;48.608;11.436;2024-02-26T01:34:30;11.70;;;7.72;;
78916;SDS011;68315;48.608;11.436;2024-02-26T01:36:56;12.23;;;8.13;;
78916;SDS011;68315;48.608;11.436;2024-02-26T01:39:21;12.70;;;8.48;;
78916;SDS011;68315;48.608;11.436;2024-02-26T01:41:47;15.23;;;9.00;;
78916;SDS011;68315;48.608;11.436;2024-02-26T01:44:12;11.52;;;7.68;;
78916;SDS011;68315;48.608;11.436;2024-02-26T01:46:38;14.13;;;8.65;;
78916;SDS011;68315;48.608;11.436;2024-02-26T01:49:03;14.50;;;8.77;;
78916;SDS011;68315;48.608;11.436;2024-02-26T01:51:29;13.90;;;8.50;;
78916;SDS011;68315;48.608;11.436;2024-02-26T01:53:57;15.90;;;9.02;;
78916;SDS011;68315;48.608;11.436;2024-02-26T01:56:23;14.18;;;9.10;;
78916;SDS011;68315;48.608;11.436;2024-02-26T01:58:53;15.27;;;9.50;;
78916;SDS011;68315;48.608;11.436;2024-02-26T02:01:18;11.82;;;8.00;;
78916;SDS011;68315;48.608;11.436;2024-02-26T02:03:46;14.13;;;9.23;;
78916;SDS011;68315;48.608;11.436;2024-02-26T02:06:11;13.27;;;8.60;;
78916;SDS011;68315;48.608;11.436;2024-02-26T02:08:37;11.52;;;7.80;;
78916;SDS011;68315;48.608;11.436;2024-02-26T02:11:03;15.13;;;9.45;;
78916;SDS011;68315;48.608;11.436;2024-02-26T02:13:28;15.50;;;9.57;;
78916;SDS011;68315;48.608;11.436;2024-02-26T02:15:54;13.82;;;8.68;;
78916;SDS011;68315;48.608;11.436;2024-02-26T02:18:19;12.07;;;8.23;;
78916;SDS011;68315;48.608;11.436;2024-02-26T02:20:44;14.45;;;9.07;;
78916;SDS011;68315;48.608;11.436;2024-02-26T02:23:10;13.10;;;8.35;;
78916;SDS011;68315;48.608;11.436;2024-02-26T02:25:35;12.77;;;8.38;;
78916;SDS011;68315;48.608;11.436;2024-02-26T02:28:00;13.65;;;8.10;;
78916;SDS011;68315;48.608;11.436;2024-02-26T02:30:26;15.00;;;9.00;;
78916;SDS011;68315;48.608;11.436;2024-02-26T02:32:54;12.20;;;8.13;;
78916;SDS011;68315;48.608;11.436;2024-02-26T02:35:20;13.07;;;8.43;;
78916;SDS011;68315;48.608;11.436;2024-02-26T02:37:45;16.65;;;10.13;;
78916;SDS011;68315;48.608;11.436;2024-02-26T02:40:10;13.18;;;9.45;;
78916;SDS011;68315;48.608;11.436;2024-02-26T02:42:36;14.55;;;9.40;;
78916;SDS011;68315;48.608;11.436;2024-02-26T02:45:01;16.50;;;11.60;;
78916;SDS011;68315;48.608;11.436;2024-02-26T02:47:26;18.77;;;12.30;;
78916;SDS011;68315;48.608;11.436;2024-02-26T02:49:51;16.80;;;10.05;;
78916;SDS011;68315;48.608;11.436;2024-02-26T02:52:17;16.83;;;10.75;;
78916;SDS011;68315;48.608;11.436;2024-02-26T02:54:42;19.17;;;11.50;;
78916;SDS011;68315;48.608;11.436;2024-02-26T02:57:07;15.15;;;9.48;;
78916;SDS011;68315;48.608;11.436;2024-02-26T02:59:33;15.82;;;10.40;;
78916;SDS011;68315;48.608;11.436;2024-02-26T03:01:58;18.05;;;9.90;;
78916;SDS011;68315;48.608;11.436;2024-02-26T03:04:24;18.35;;;11.45;;
78916;SDS011;68315;48.608;11.436;2024-02-26T03:06:49;15.27;;;9.95;;
78916;SDS011;68315;48.608;11.436;2024-02-26T03:09:14;18.60;;;11.02;;
78916;SDS011;68315;48.608;11.436;2024-02-26T03:11:39;15.98;;;9.77;;
78916;SDS011;68315;48.608;11.436;2024-02-26T03:14:05;15.57;;;10.13;;
78916;SDS011;68315;48.608;11.436;2024-02-26T03:16:31;15.63;;;10.18;;
78916;SDS011;68315;48.608;11.436;2024-02-26T03:18:56;19.55;;;11.10;;
78916;SDS011;68315;48.608;11.436;2024-02-26T03:21:21;17.00;;;10.73;;
78916;SDS011;68315;48.608;11.436;2024-02-26T03:23:47;16.23;;;10.60;;
78916;SDS011;68315;48.608;11.436;2024-02-26T03:26:12;14.68;;;10.05;;
78916;SDS011;68315;48.608;11.436;2024-02-26T03:28:39;15.70;;;10.13;;
78916;SDS011;68315;48.608;11.436;2024-02-26T03:31:05;16.50;;;10.57;;
78916;SDS011;68315;48.608;11.436;2024-02-26T03:33:30;15.10;;;10.07;;
78916;SDS011;68315;48.608;11.436;2024-02-26T03:35:55;16.60;;;10.35;;
78916;SDS011;68315;48.608;11.436;2024-02-26T03:38:21;16.38;;;10.40;;
78916;SDS011;68315;48.608;11.436;2024-02-26T03:40:46;14.65;;;9.30;;
78916;SDS011;68315;48.608;11.436;2024-02-26T03:43:11;18.77;;;10.90;;
78916;SDS011;68315;48.608;11.436;2024-02-26T03:45:37;17.55;;;10.98;;
78916;SDS011;68315;48.608;11.436;2024-02-26T03:48:03;17.70;;;12.35;;
78916;SDS011;68315;48.608;11.436;2024-02-26T03:50:28;19.15;;;11.65;;
78916;SDS011;68315;48.608;11.436;2024-02-26T03:52:53;18.48;;;12.30;;
78916;SDS011;68315;48.608;11.436;2024-02-26T03:55:19;17.48;;;11.68;;
78916;SDS011;68315;48.608;11.436;2024-02-26T03:57:49;17.38;;;12.15;;
78916;SDS011;68315;48.608;11.436;2024-02-26T04:00:15;18.63;;;11.90;;
78916;SDS011;68315;48.608;11.436;2024-02-26T04:02:40;17.73;;;11.43;;
78916;SDS011;68315;48.608;11.436;2024-02-26T04:05:08;17.65;;;10.90;;
78916;SDS011;68315;48.608;11.436;2024-02-26T04:07:35;17.02;;;11.60;;
78916;SDS011;68315;48.608;11.436;2024-02-26T04:10:00;16.42;;;10.73;;
78916;SDS011;68315;48.608;11.436;2024-02-26T04:12:28;21.85;;;12.57;;
78916;SDS011;68315;48.608;11.436;2024-02-26T04:14:53;15.77;;;10.95;;
78916;SDS011;68315;48.608;11.436;2024-02-26T04:17:21;18.05;;;11.05;;
78916;SDS011;68315;48.608;11.436;2024-02-26T04:19:47;15.95;;;10.38;;
78916;SDS011;68315;48.608;11.436;2024-02-26T04:22:12;18.55;;;11.52;;
78916;SDS011;68315;48.608;11.436;2024-02-26T04:24:37;17.85;;;11.43;;
78916;SDS011;68315;48.608;11.436;2024-02-26T04:27:02;17.23;;;11.10;;
78916;SDS011;68315;48.608;11.436;2024-02-26T04:29:28;17.02;;;10.93;;
78916;SDS011;68315;48.608;11.436;2024-02-26T04:31:53;18.58;;;12.30;;
78916;SDS011;68315;48.608;11.436;2024-02-26T04:34:18;15.23;;;10.57;;
78916;SDS011;68315;48.608;11.436;2024-02-26T04:36:43;15.40;;;9.82;;
78916;SDS011;68315;48.608;11.436;2024-02-26T04:39:09;18.45;;;10.98;;
78916;SDS011;68315;48.608;11.436;2024-02-26T04:41:35;17.15;;;11.02;;
78916;SDS011;68315;48.608;11.436;2024-02-26T04:44:00;17.58;;;10.85;;
78916;SDS011;68315;48.608;11.436;2024-02-26T04:46:25;18.50;;;11.45;;
78916;SDS011;68315;48.608;11.436;2024-02-26T04:48:50;18.73;;;11.63;;
78916;SDS011;68315;48.608;11.436;2024-02-26T04:51:16;15.02;;;9.80;;
78916;SDS011;68315;48.608;11.436;2024-02-26T04:53:41;17.52;;;11.15;;
78916;SDS011;68315;48.608;11.436;2024-02-26T04:56:06;17.02;;;11.45;;
78916;SDS011;68315;48.608;11.436;2024-02-26T04:58:31;18.52;;;11.73;;
78916;SDS011;68315;48.608;11.436;2024-02-26T05:00:57;17.73;;;11.95;;
78916;SDS011;68315;48.608;11.436;2024-02-26T05:03:22;17.90;;;11.65;;
78916;SDS011;68315;48.608;11.436;2024-02-26T05:05:47;18.70;;;12.05;;
78916;SDS011;68315;48.608;11.436;2024-02-26T05:08:13;19.17;;;11.52;;
78916;SDS011;68315;48.608;11.436;2024-02-26T05:10:38;15.82;;;10.50;;
78916;SDS011;68315;48.608;11.436;2024-02-26T05:13:08;15.98;;;10.50;;
78916;SDS011;68315;48.608;11.436;2024-02-26T05:15:33;18.70;;;11.63;;
78916;SDS011;68315;48.608;11.436;2024-02-26T05:17:58;17.80;;;11.82;;
78916;SDS011;68315;48.608;11.436;2024-02-26T05:20:24;19.08;;;11.57;;
78916;SDS011;68315;48.608;11.436;2024-02-26T05:22:49;17.50;;;11.43;;
78916;SDS011;68315;48.608;11.436;2024-02-26T05:25:15;16.00;;;11.20;;
78916;SDS011;68315;48.608;11.436;2024-02-26T05:27:41;17.33;;;10.88;;
78916;SDS011;68315;48.608;11.436;2024-02-26T05:30:07;18.65;;;12.38;;
78916;SDS011;68315;48.608;11.436;2024-02-26T05:32:32;20.40;;;12.63;;
78916;SDS011;68315;48.608;11.436;2024-02-26T05:34:57;16.08;;;11.38;;
78916;SDS011;68315;48.608;11.436;2024-02-26T05:37:23;19.10;;;12.32;;
78916;SDS011;68315;48.608;11.436;2024-02-26T05:39:48;18.70;;;11.65;;
78916;SDS011;68315;48.608;11.436;2024-02-26T05:42:13;19.30;;;12.05;;
78916;SDS011;68315;48.608;11.436;2024-02-26T05:44:38;15.88;;;11.32;;
78916;SDS011;68315;48.608;11.436;2024-02-26T05:47:04;20.08;;;11.40;;
78916;SDS011;68315;48.608;11.436;2024-02-26T05:49:29;18.33;;;11.32;;
78916;SDS011;68315;48.608;11.436;2024-02-26T05:51:54;19.58;;;11.95;;
78916;SDS011;68315;48.608;11.436;2024-02-26T05:54:20;20.85;;;13.15;;
78916;SDS011;68315;48.608;11.436;2024-02-26T05:56:45;19.77;;;11.93;;
78916;SDS011;68315;48.608;11.436;2024-02-26T05:59:10;19.45;;;11.88;;
78916;SDS011;68315;48.608;11.436;2024-02-26T06:01:35;19.38;;;12.50;;
78916;SDS011;68315;48.608;11.436;2024-02-26T06:04:01;17.38;;;10.75;;
78916;SDS011;68315;48.608;11.436;2024-02-26T06:06:28;16.90;;;11.25;;
78916;SDS011;68315;48.608;11.436;2024-02-26T06:08:53;17.00;;;10.82;;
78916;SDS011;68315;48.608;11.436;2024-02-26T06:11:19;17.30;;;11.30;;
78916;SDS011;68315;48.608;11.436;2024-02-26T06:13:44;17.20;;;11.45;;
78916;SDS011;68315;48.608;11.436;2024-02-26T06:16:09;18.33;;;11.32;;
78916;SDS011;68315;48.608;11.436;2024-02-26T06:18:35;19.08;;;11.55;;
78916;SDS011;68315;48.608;11.436;2024-02-26T06:21:00;16.27;;;11.70;;
78916;SDS011;68315;48.608;11.436;2024-02-26T06:23:25;16.90;;;11.18;;
78916;SDS011;68315;48.608;11.436;2024-02-26T06:25:51;17.80;;;11.82;;
78916;SDS011;68315;48.608;11.436;2024-02-26T06:28:16;18.73;;;11.18;;
78916;SDS011;68315;48.608;11.436;2024-02-26T06:30:41;17.85;;;11.07;;
78916;SDS011;68315;48.608;11.436;2024-02-26T06:33:07;18.58;;;12.30;;
78916;SDS011;68315;48.608;11.436;2024-02-26T06:35:32;16.13;;;11.23;;
78916;SDS011;68315;48.608;11.436;2024-02-26T06:37:58;17.83;;;10.95;;
78916;SDS011;68315;48.608;11.436;2024-02-26T06:40:23;17.23;;;11.40;;
78916;SDS011;68315;48.608;11.436;2024-02-26T06:42:48;16.08;;;11.10;;
78916;SDS011;68315;48.608;11.436;2024-02-26T06:45:15;17.98;;;10.75;;
78916;SDS011;68315;48.608;11.436;2024-02-26T06:47:40;18.30;;;10.88;;
78916;SDS011;68315;48.608;11.436;2024-02-26T06:50:05;17.35;;;10.77;;
78916;SDS011;68315;48.608;11.436;2024-02-26T06:52:31;14.82;;;10.35;;
78916;SDS011;68315;48.608;11.436;2024-02-26T06:54:56;19.67;;;11.50;;
78916;SDS011;68315;48.608;11.436;2024-02-26T06:57:21;15.57;;;10.55;;
78916;SDS011;68315;48.608;11.436;2024-02-26T06:59:47;19.48;;;10.93;;
78916;SDS011;68315;48.608;11.436;2024-02-26T07:02:13;17.25;;;11.38;;
78916;SDS011;68315;48.608;11.436;2024-02-26T07:04:38;18.45;;;11.10;;
78916;SDS011;68315;48.608;11.436;2024-02-26T07:07:04;16.23;;;10.73;;
78916;SDS011;68315;48.608;11.436;2024-02-26T07:09:29;18.15;;;11.65;;
78916;SDS011;68315;48.608;11.436;2024-02-26T07:11:54;19.13;;;11.95;;
78916;SDS011;68315;48.608;11.436;2024-02-26T07:14:19;19.35;;;11.65;;
78916;SDS011;68315;48.608;11.436;2024-02-26T07:16:45;19.13;;;11.65;;
78916;SDS011;68315;48.608;11.436;2024-02-26T07:19:10;22.95;;;13.45;;
78916;SDS011;68315;48.608;11.436;2024-02-26T07:21:35;22.92;;;13.52;;
78916;SDS011;68315;48.608;11.436;2024-02-26T07:24:00;21.60;;;13.60;;
78916;SDS011;68315;48.608;11.436;2024-02-26T07:26:26;23.20;;;13.70;;
78916;SDS011;68315;48.608;11.436;2024-02-26T07:28:51;24.90;;;13.80;;
78916;SDS011;68315;48.608;11.436;2024-02-26T07:31:19;23.63;;;15.23;;
78916;SDS011;68315;48.608;11.436;2024-02-26T07:33:44;24.38;;;14.70;;
78916;SDS011;68315;48.608;11.436;2024-02-26T07:36:09;23.38;;;13.75;;
78916;SDS011;68315;48.608;11.436;2024-02-26T07:38:34;23.15;;;13.77;;
78916;SDS011;68315;48.608;11.436;2024-02-26T07:41:01;24.75;;;15.00;;
78916;SDS011;68315;48.608;11.436;2024-02-26T07:43:27;25.83;;;14.98;;
78916;SDS011;68315;48.608;11.436;2024-02-26T07:45:52;23.67;;;14.68;;
78916;SDS011;68315;48.608;11.436;2024-02-26T07:48:18;20.13;;;13.73;;
78916;SDS011;68315;48.608;11.436;2024-02-26T07:50:43;21.83;;;13.55;;
78916;SDS011;68315;48.608;11.436;2024-02-26T07:53:08;25.60;;;14.50;;
78916;SDS011;68315;48.608;11.436;2024-02-26T07:55:33;23.77;;;15.05;;
78916;SDS011;68315;48.608;11.436;2024-02-26T07:57:59;21.90;;;14.68;;
78916;SDS011;68315;48.608;11.436;2024-02-26T08:00:24;21.40;;;14.38;;
78916;SDS011;68315;48.608;11.436;2024-02-26T08:02:49;22.55;;;15.55;;
78916;SDS011;68315;48.608;11.436;2024-02-26T08:05:14;25.95;;;16.08;;
78916;SDS011;68315;48.608;11.436;2024-02-26T08:07:40;21.23;;;14.38;;
78916;SDS011;68315;48.608;11.436;2024-02-26T08:10:06;20.40;;;13.30;;
78916;SDS011;68315;48.608;11.436;2024-02-26T08:12:32;23.73;;;14.70;;
78916;SDS011;68315;48.608;11.436;2024-02-26T08:14:57;24.27;;;15.40;;
78916;SDS011;68315;48.608;11.436;2024-02-26T08:17:23;20.27;;;14.18;;
78916;SDS011;68315;48.608;11.436;2024-02-26T08:19:48;20.88;;;13.13;;
78916;SDS011;68315;48.608;11.436;2024-02-26T08:22:13;25.40;;;16.17;;
78916;SDS011;68315;48.608;11.436;2024-02-26T08:24:41;22.67;;;14.52;;
78916;SDS011;68315;48.608;11.436;2024-02-26T08:27:07;22.27;;;15.32;;
78916;SDS011;68315;48.608;11.436;2024-02-26T08:29:32;22.13;;;14.70;;
78916;SDS011;68315;48.608;11.436;2024-02-26T08:31:57;24.65;;;14.57;;
78916;SDS011;68315;48.608;11.436;2024-02-26T08:34:22;22.38;;;14.75;;
78916;SDS011;68315;48.608;11.436;2024-02-26T08:36:48;23.38;;;15.13;;
78916;SDS011;68315;48.608;11.436;2024-02-26T08:39:14;23.10;;;14.23;;
78916;SDS011;68315;48.608;11.436;2024-02-26T08:41:39;20.30;;;13.25;;
78916;SDS011;68315;48.608;11.436;2024-02-26T08:44:04;17.33;;;12.10;;
78916;SDS011;68315;48.608;11.436;2024-02-26T08:46:30;19.52;;;12.82;;
78916;SDS011;68315;48.608;11.436;2024-02-26T08:48:55;20.27;;;12.20;;
78916;SDS011;68315;48.608;11.436;2024-02-26T08:51:21;19.17;;;12.55;;
78916;SDS011;68315;48.608;11.436;2024-02-26T08:53:46;22.45;;;12.25;;
78916;SDS011;68315;48.608;11.436;2024-02-26T08:56:11;19.42;;;12.18;;
78916;SDS011;68315;48.608;11.436;2024-02-26T08:58:41;16.50;;;11.52;;
78916;SDS011;68315;48.608;11.436;2024-02-26T09:01:06;16.42;;;11.38;;
78916;SDS011;68315;48.608;11.436;2024-02-26T09:03:32;13.45;;;10.15;;
78916;SDS011;68315;48.608;11.436;2024-02-26T09:05:57;16.50;;;11.38;;
78916;SDS011;68315;48.608;11.436;2024-02-26T09:08:22;17.70;;;11.18;;
78916;SDS011;68315;48.608;11.436;2024-02-26T09:10:47;16.50;;;11.52;;
78916;SDS011;68315;48.608;11.436;2024-02-26T09:13:13;16.55;;;11.63;;
78916;SDS011;68315;48.608;11.436;2024-02-26T09:15:38;17.90;;;12.18;;
78916;SDS011;68315;48.608;11.436;2024-02-26T09:18:03;18.30;;;12.30;;
78916;SDS011;68315;48.608;11.436;2024-02-26T09:20:28;18.27;;;11.85;;
78916;SDS011;68315;48.608;11.436;2024-02-26T09:22:54;14.50;;;10.77;;
78916;SDS011;68315;48.608;11.436;2024-02-26T09:25:19;16.70;;;10.90;;
78916;SDS011;68315;48.608;11.436;2024-02-26T09:27:45;16.48;;;11.05;;
78916;SDS011;68315;48.608;11.436;2024-02-26T09:30:11;15.23;;;11.35;;
78916;SDS011;68315;48.608;11.436;2024-02-26T09:32:38;16.17;;;10.38;;
78916;SDS011;68315;48.608;11.436;2024-02-26T09:35:04;15.68;;;10.95;;
78916;SDS011;68315;48.608;11.436;2024-02-26T09:37:30;14.15;;;10.65;;
78916;SDS011;68315;48.608;11.436;2024-02-26T09:39:55;16.80;;;11.45;;
78916;SDS011;68315;48.608;11.436;2024-02-26T09:42:20;19.15;;;11.60;;
78916;SDS011;68315;48.608;11.436;2024-02-26T09:44:50;16.10;;;10.77;;
78916;SDS011;68315;48.608;11.436;2024-02-26T09:47:18;14.55;;;9.95;;
78916;SDS011;68315;48.608;11.436;2024-02-26T09:49:45;16.00;;;9.60;;
78916;SDS011;68315;48.608;11.436;2024-02-26T09:52:12;14.88;;;9.38;;
78916;SDS011;68315;48.608;11.436;2024-02-26T09:54:39;12.98;;;9.32;;
78916;SDS011;68315;48.608;11.436;2024-02-26T09:57:06;12.55;;;9.50;;
78916;SDS011;68315;48.608;11.436;2024-02-26T09:59:39;13.48;;;8.95;;
78916;SDS011;68315;48.608;11.436;2024-02-26T10:02:08;17.75;;;10.27;;
78916;SDS011;68315;48.608;11.436;2024-02-26T10:04:36;13.85;;;9.60;;
78916;SDS011;68315;48.608;11.436;2024-02-26T10:07:04;13.00;;;9.30;;
78916;SDS011;68315;48.608;11.436;2024-02-26T10:09:37;14.13;;;9.95;;
78916;SDS011;68315;48.608;11.436;2024-02-26T10:12:06;11.65;;;9.07;;
78916;SDS011;68315;48.608;11.436;2024-02-26T10:14:36;13.13;;;9.10;;
78916;SDS011;68315;48.608;11.436;2024-02-26T10:17:01;14.88;;;10.13;;
78916;SDS011;68315;48.608;11.436;2024-02-26T10:19:27;13.73;;;9.48;;
78916;SDS011;68315;48.608;11.436;2024-02-26T10:21:56;14.68;;;9.95;;
78916;SDS011;68315;48.608;11.436;2024-02-26T10:24:22;15.52;;;10.25;;
78916;SDS011;68315;48.608;11.436;2024-02-26T10:26:47;13.68;;;9.65;;
78916;SDS011;68315;48.608;11.436;2024-02-26T10:29:13;13.07;;;9.75;;
78916;SDS011;68315;48.608;11.436;2024-02-26T10:31:41;14.00;;;9.43;;
78916;SDS011;68315;48.608;11.436;2024-02-26T10:34:07;15.23;;;10.25;;
78916;SDS011;68315;48.608;11.436;2024-02-26T10:36:33;12.45;;;9.85;;
78916;SDS011;68315;48.608;11.436;2024-02-26T10:39:01;15.80;;;10.65;;
78916;SDS011;68315;48.608;11.436;2024-02-26T10:41:30;11.80;;;8.77;;
78916;SDS011;68315;48.608;11.436;2024-02-26T10:43:55;14.60;;;9.88;;
78916;SDS011;68315;48.608;11.436;2024-02-26T10:46:20;17.05;;;10.63;;
78916;SDS011;68315;48.608;11.436;2024-02-26T10:48:49;13.23;;;9.32;;
78916;SDS011;68315;48.608;11.436;2024-02-26T10:51:15;13.50;;;8.90;;
78916;SDS011;68315;48.608;11.436;2024-02-26T10:53:45;11.90;;;8.50;;
78916;SDS011;68315;48.608;11.436;2024-02-26T10:56:12;9.38;;;7.70;;
78916;SDS011;68315;48.608;11.436;2024-02-26T10:58:40;11.70;;;8.70;;
78916;SDS011;68315;48.608;11.436;2024-02-26T11:01:07;9.98;;;6.95;;
78916;SDS011;68315;48.608;11.436;2024-02-26T11:03:34;10.65;;;7.22;;
78916;SDS011;68315;48.608;11.436;2024-02-26T11:06:01;9.38;;;7.05;;
78916;SDS011;68315;48.608;11.436;2024-02-26T11:08:28;10.20;;;7.28;;
78916;SDS011;68315;48.608;11.436;2024-02-26T11:10:55;10.73;;;7.05;;
78916;SDS011;68315;48.608;11.436;2024-02-26T11:13:21;8.57;;;6.32;;
78916;SDS011;68315;48.608;11.436;2024-02-26T11:15:51;8.85;;;6.88;;
78916;SDS011;68315;48.608;11.436;2024-02-26T11:18:19;8.80;;;6.30;;
78916;SDS011;68315;48.608;11.436;2024-02-26T11:20:46;7.47;;;6.07;;
78916;SDS011;68315;48.608;11.436;2024-02-26T11:23:13;7.43;;;5.60;;
78916;SDS011;68315;48.608;11.436;2024-02-26T11:25:38;7.88;;;5.93;;
78916;SDS011;68315;48.608;11.436;2024-02-26T11:28:09;6.50;;;5.53;;
78916;SDS011;68315;48.608;11.436;2024-02-26T11:30:38;7.32;;;5.90;;
78916;SDS011;68315;48.608;11.436;2024-02-26T11:33:09;7.32;;;4.97;;
78916;SDS011;68315;48.608;11.436;2024-02-26T11:35:37;6.43;;;4.97;;
78916;SDS011;68315;48.608;11.436;2024-02-26T11:38:03;7.60;;;5.55;;
78916;SDS011;68315;48.608;11.436;2024-02-26T11:40:28;6.78;;;4.88;;
78916;SDS011;68315;48.608;11.436;2024-02-26T11:42:56;7.25;;;5.97;;
78916;SDS011;68315;48.608;11.436;2024-02-26T11:48:14;8.43;;;6.13;;
78916;SDS011;68315;48.608;11.436;2024-02-26T11:58:46;10.13;;;6.78;;
78916;SDS011;68315;48.608;11.436;2024-02-26T12:04:20;9.15;;;6.20;;
78916;SDS011;68315;48.608;11.436;2024-02-26T12:06:51;8.55;;;6.03;;
78916;SDS011;68315;48.608;11.436;2024-02-26T12:09:34;9.35;;;5.85;;
78916;SDS011;68315;48.608;11.436;2024-02-26T12:12:13;7.40;;;6.07;;
78916;SDS011;68315;48.608;11.436;2024-02-26T12:14:53;10.35;;;6.22;;
78916;SDS011;68315;48.608;11.436;2024-02-26T12:17:21;7.78;;;5.97;;
78916;SDS011;68315;48.608;11.436;2024-02-26T12:19:50;7.93;;;5.65;;
78916;SDS011;68315;48.608;11.436;2024-02-26T12:22:20;7.28;;;5.32;;
78916;SDS011;68315;48.608;11.436;2024-02-26T12:24:45;5.60;;;4.68;;
78916;SDS011;68315;48.608;11.436;2024-02-26T12:27:11;5.90;;;4.93;;
78916;SDS011;68315;48.608;11.436;2024-02-26T12:29:36;6.30;;;4.45;;
78916;SDS011;68315;48.608;11.436;2024-02-26T12:32:05;9.13;;;5.10;;
78916;SDS011;68315;48.608;11.436;2024-02-26T12:34:31;5.95;;;4.90;;
78916;SDS011;68315;48.608;11.436;2024-02-26T12:36:56;5.97;;;4.28;;
78916;SDS011;68315;48.608;11.436;2024-02-26T12:39:22;6.57;;;4.05;;
78916;SDS011;68315;48.608;11.436;2024-02-26T12:41:47;4.88;;;4.03;;
78916;SDS011;68315;48.608;11.436;2024-02-26T12:44:16;5.68;;;4.07;;
78916;SDS011;68315;48.608;11.436;2024-02-26T12:46:41;4.50;;;3.53;;
78916;SDS011;68315;48.608;11.436;2024-02-26T12:49:07;5.30;;;3.75;;
78916;SDS011;68315;48.608;11.436;2024-02-26T12:51:33;5.25;;;4.18;;
78916;SDS011;68315;48.608;11.436;2024-02-26T12:53:58;4.38;;;3.92;;
78916;SDS011;68315;48.608;11.436;2024-02-26T12:56:24;4.90;;;3.17;;
78916;SDS011;68315;48.608;11.436;2024-02-26T12:58:51;4.38;;;3.60;;
78916;SDS011;68315;48.608;11.436;2024-02-26T13:01:17;4.30;;;3.25;;
78916;SDS011;68315;48.608;11.436;2024-02-26T13:03:45;4.38;;;3.17;;
78916;SDS011;68315;48.608;11.436;2024-02-26T13:06:11;3.22;;;2.38;;
78916;SDS011;68315;48.608;11.436;2024-02-26T13:08:36;3.00;;;2.40;;
78916;SDS011;68315;48.608;11.436;2024-02-26T13:11:02;4.30;;;2.70;;
78916;SDS011;68315;48.608;11.436;2024-02-26T13:13:27;2.47;;;2.28;;
78916;SDS011;68315;48.608;11.436;2024-02-26T13:16:01;2.90;;;2.20;;
78916;SDS011;68315;48.608;11.436;2024-02-26T13:18:28;2.45;;;1.80;;
78916;SDS011;68315;48.608;11.436;2024-02-26T13:21:05;3.20;;;2.00;;
78916;SDS011;68315;48.608;11.436;2024-02-26T13:23:38;2.20;;;2.00;;
78916;SDS011;68315;48.608;11.436;2024-02-26T13:26:04;3.25;;;1.98;;
78916;SDS011;68315;48.608;11.436;2024-02-26T13:28:29;2.75;;;1.90;;
78916;SDS011;68315;48.608;11.436;2024-02-26T13:30:55;2.78;;;2.13;;
78916;SDS011;68315;48.608;11.436;2024-02-26T13:33:22;2.35;;;2.15;;
78916;SDS011;68315;48.608;11.436;2024-02-26T13:35:48;2.85;;;2.40;;
78916;SDS011;68315;48.608;11.436;2024-02-26T13:38:13;3.05;;;2.40;;
78916;SDS011;68315;48.608;11.436;2024-02-26T13:40:39;2.72;;;1.90;;
78916;SDS011;68315;48.608;11.436;2024-02-26T13:43:05;3.00;;;2.40;;
78916;SDS011;68315;48.608;11.436;2024-02-26T13:45:30;3.20;;;2.20;;
78916;SDS011;68315;48.608;11.436;2024-02-26T13:47:59;2.70;;;2.28;;
78916;SDS011;68315;48.608;11.436;2024-02-26T13:50:27;2.58;;;2.28;;
78916;SDS011;68315;48.608;11.436;2024-02-26T13:52:52;3.78;;;2.00;;
78916;SDS011;68315;48.608;11.436;2024-02-26T13:55:19;3.00;;;2.40;;
78916;SDS011;68315;48.608;11.436;2024-02-26T13:57:45;4.88;;;2.30;;
78916;SDS011;68315;48.608;11.436;2024-02-26T14:00:11;3.30;;;2.33;;
78916;SDS011;68315;48.608;11.436;2024-02-26T14:02:37;3.35;;;2.65;;
78916;SDS011;68315;48.608;11.436;2024-02-26T14:05:02;2.60;;;2.17;;
78916;SDS011;68315;48.608;11.436;2024-02-26T14:07:29;2.72;;;2.22;;
78916;SDS011;68315;48.608;11.436;2024-02-26T14:09:55;2.28;;;2.00;;
78916;SDS011;68315;48.608;11.436;2024-02-26T14:12:20;2.65;;;2.13;;
78916;SDS011;68315;48.608;11.436;2024-02-26T14:14:45;2.53;;;2.30;;
78916;SDS011;68315;48.608;11.436;2024-02-26T14:17:13;2.45;;;2.17;;
78916;SDS011;68315;48.608;11.436;2024-02-26T14:19:39;2.40;;;2.20;;
78916;SDS011;68315;48.608;11.436;2024-02-26T14:22:08;2.83;;;2.17;;
78916;SDS011;68315;48.608;11.436;2024-02-26T14:24:36;3.65;;;2.08;;
78916;SDS011;68315;48.608;11.436;2024-02-26T14:27:01;2.35;;;1.80;;